Flight Track Log - Related Links

Times and Time Zones

All times are in EDT time to prevent confusion due to time zone crossing. See the EJA929 flight status page for this flight to view local times or setup timezone preferences in your user account.


Time Position Orientation Groundspeed Altitude Reporting Facility
EDT Latitude Longitude Course Direction KTS MPH feet Rate Location/Type
Wed 01:04:29 PM 33.2094 -87.5619 226° Southwest 211 243 3,700  Level Atlanta Center
Wed 01:05:28 PM 33.1603 -87.6069 217° Southwest 300 345 5,000 1,541 Climbing Atlanta Center
Wed 01:06:18 PM 33.1128 -87.6786 232° Southwest 308 354 6,500 2,509 Climbing Memphis Center
Wed 01:07:18 PM 33.0642 -87.7544 233° Southwest 308 354 9,600 2,250 Climbing Memphis Center
Wed 01:08:00 PM 33.0774 -87.8059 220° Southwest  Level FlightAware Approximate
Wed 01:08:18 PM 33.0117 -87.8378 233° Southwest 303 349 11,000  Level Memphis Center
Wed 01:09:00 PM 33.0053 -87.9018 226° Southwest  Level FlightAware Approximate
Wed 01:09:18 PM 32.9589 -87.9186 232° Southwest 323 372 12,800  Level Memphis Center
Wed 01:10:18 PM 32.9044 -88.0067 234° Southwest 334 384 14,600 1,550 Climbing Memphis Center
Wed 01:11:18 PM 32.8414 -88.1022 232° Southwest 353 406 15,900 1,550 Climbing Memphis Center
Wed 01:12:18 PM 32.7847 -88.2000 235° Southwest 364 419 17,700 1,750 Climbing Memphis Center
Wed 01:13:18 PM 32.7469 -88.3122 248° West 364 419 19,400 1,500 Climbing Memphis Center
Wed 01:14:18 PM 32.7131 -88.4217 250° West 364 419 20,700 1,250 Climbing Memphis Center
Wed 01:15:18 PM 32.6711 -88.5383 247° West 369 425 21,900 1,500 Climbing Memphis Center
Wed 01:16:18 PM 32.6292 -88.6700 249° West 383 441 23,700 1,500 Climbing Memphis Center
Wed 01:17:18 PM 32.5889 -88.7892 248° West 383 441 24,900 1,300 Climbing Memphis Center
Wed 01:18:18 PM 32.5467 -88.9106 248° West 395 455 26,300 1,300 Climbing Memphis Center
Wed 01:19:18 PM 32.5042 -89.0319 247° West 395 455 27,500 1,150 Climbing Memphis Center
Wed 01:20:18 PM 32.4614 -89.1558 248° West 395 455 28,600 1,050 Climbing Memphis Center
Wed 01:21:18 PM 32.4189 -89.2867 249° West 407 468 29,600 1,000 Climbing Memphis Center
Wed 01:22:18 PM 32.3739 -89.4153 248° West 420 483 30,600 1,050 Climbing Memphis Center
Wed 01:23:18 PM 32.3289 -89.5486 248° West 426 490 31,700 1,050 Climbing Memphis Center
Wed 01:24:18 PM 32.2817 -89.6817 247° West 433 498 32,700 1,000 Climbing Memphis Center
Wed 01:25:18 PM 32.2322 -89.8194 247° West 443 510 33,700 1,250 Climbing Memphis Center
Wed 01:26:18 PM 32.1847 -89.9547 247° West 448 516 35,200 885 Climbing Memphis Center
Wed 01:27:54 PM 32.1189 -90.1442 248° West 450 518 36,000 304 Climbing Houston Center
Wed 01:28:56 PM 32.0611 -90.3089 248° West 454 522 36,000  Level Houston Center
Wed 01:29:58 PM 32.0125 -90.4483 248° West 462 532 36,000  Level Houston Center
Wed 01:31:00 PM 31.9606 -90.5894 247° West 468 539 36,000  Level Houston Center
Wed 01:32:02 PM 31.9111 -90.7317 248° West 471 542 36,000  Level Houston Center
Wed 01:33:04 PM 31.8525 -90.8914 247° West 470 541 36,000  Level Houston Center
Wed 01:34:06 PM 31.7994 -91.0417 247° West 470 541 36,000  Level Houston Center
Wed 01:35:08 PM 31.7500 -91.1736 246° West 469 540 36,000  Level Houston Center
Wed 01:36:10 PM 31.6992 -91.3153 247° West 471 542 36,000  Level Houston Center
Wed 01:37:12 PM 31.6481 -91.4575 247° West 472 543 36,000  Level Houston Center
Wed 01:38:13 PM 31.5972 -91.6306 251° West 471 542 36,000  Level Houston Center
Wed 01:39:15 PM 31.5614 -91.7772 254° West 469 540 36,000  Level Houston Center
Wed 01:40:17 PM 31.5256 -91.9244 254° West 470 541 36,000  Level Houston Center
Wed 01:41:19 PM 31.4883 -92.0700 253° West 470 541 36,000  Level Houston Center
Wed 01:42:21 PM 31.4522 -92.2206 254° West 476 548 36,000  Level Houston Center
Wed 01:43:23 PM 31.4217 -92.3692 256° West 474 545 36,000  Level Houston Center
Wed 01:44:25 PM 31.3967 -92.5186 259° West 470 541 36,000  Level Houston Center
Wed 01:45:27 PM 31.3667 -92.6992 259° West 475 547 36,000  Level Houston Center
Wed 01:46:28 PM 31.3011 -92.8369 241° Southwest 492 566 36,000  Level Houston Center
Wed 01:47:30 PM 31.2358 -92.9736 241° Southwest 485 558 36,000  Level Houston Center
Wed 01:48:32 PM 31.1708 -93.1114 241° Southwest 487 560 36,000 -97 Level Houston Center
Wed 01:49:34 PM 31.1056 -93.2483 241° Southwest 486 559 35,800 -968 Descending Houston Center
Wed 01:50:36 PM 31.0394 -93.3869 241° Southwest 491 565 34,000 -2,049 Descending Houston Center
Wed 01:51:37 PM 30.9558 -93.5636 241° Southwest 520 598 31,600 -2,195 Descending Houston Center
Wed 01:52:39 PM 30.8819 -93.7178 241° Southwest 545 627 29,500 -1,935 Descending Houston Center
Wed 01:53:41 PM 30.8097 -93.8683 241° Southwest 541 623 27,600 -1,935 Descending Houston Center
Wed 01:54:43 PM 30.7397 -94.0150 241° Southwest 528 608 25,500 -2,250 Descending Houston Center
Wed 01:55:25 PM 30.6819 -94.1353 241° Southwest 508 585 23,700 -2,202 Descending Houston Center
Wed 01:56:32 PM 30.6069 -94.2889 240° Southwest 483 556 21,500 -2,063 Descending Houston Center
Wed 01:57:33 PM 30.5386 -94.4267 240° Southwest 469 540 19,300 -2,049 Descending Houston Center
Wed 01:58:35 PM 30.4731 -94.5517 239° Southwest 444 511 17,300 -1,805 Descending Houston Center
Wed 01:59:36 PM 30.4072 -94.6522 233° Southwest 368 423 15,600 -1,623 Descending Houston Center
Wed 02:00:37 PM 30.3489 -94.7444 234° Southwest 355 409 14,000 -1,918 Descending Houston Center
Wed 02:01:38 PM 30.2886 -94.8392 234° Southwest 337 388 11,700 -1,714 Descending Houston Center
Wed 02:02:57 PM 30.2264 -94.9344 233° Southwest 331 381 10,000 -829 Descending Houston Center
Wed 02:03:41 PM 30.1781 -95.0056 232° Southwest 314 361 10,000  Level Houston Center
Wed 02:04:42 PM 30.1178 -95.0783 226° Southwest 341 392 10,000  Level Houston Center
Wed 02:05:43 PM 30.0331 -95.1153 201° Southwest 283 326 10,000  Level Houston Center
Wed 02:06:45 PM 29.9603 -95.1458 200° South 260 299 10,000 -341 Level Houston Center
Wed 02:07:46 PM 29.8956 -95.1731 200° South 240 276 9,300 -984 Descending Houston Center
Wed 02:08:47 PM 29.8331 -95.2000 201° Southwest 243 280 8,000 -1,279 Descending Houston Center
Wed 02:09:48 PM 29.7644 -95.2303 201° Southwest 242 278 6,700 -984 Descending Houston Center
Wed 02:10:49 PM 29.7081 -95.2131 165° South 236 272 6,000 -836 Descending Houston Center
Wed 02:11:50 PM 29.6656 -95.1603 133° Southeast 219 252 5,000 -934 Descending Houston Center
Wed 02:12:51 PM 29.6228 -95.1081 133° Southeast 222 255 4,100 -488 Descending Houston Center
Wed 02:13:53 PM 29.5753 -95.0728 147° Southeast 195 224 4,000 -390 Descending Houston Center
Wed 02:14:54 PM 29.5219 -95.0842 191° South 186 214 3,300 -934 Descending Houston Center
Wed 02:15:55 PM 29.5200 -95.1325 267° West 187 215 2,100 -585 Descending Houston Center
Wed 02:16:57 PM 29.5531 -95.1717 314° West 171 197 2,100 -295 Level Houston Center
Wed 02:17:57 PM 29.5836 -95.2064 315° West 139 160 1,500 -689 Descending Houston Center
Wed 02:18:59 PM 29.6122 -95.2414 313° West 137 158 700 -553 Descending Houston Center
Wed 02:20:29 PM 29.6519 -95.2872 315° West 142 163 100 -400 Descending Houston Center

Login

Don't have an account? Register now (free) for customized features, flight alerts, and more!